French Creek

NWS Weather station page.

Elevation
7422ft
Jump to table bottom
Date/Time Wind Direction Wind Speed knots Wind Gust knots RH % Accumulated Precip Inches Air Temp Fahrenheit
2022-11-30 14:16 S 6 10 65 2.16 24
2022-11-30 13:16 S 5 12 68 2.16 22
2022-11-30 12:16 S 7 10 68 2.16 20
2022-11-30 11:16 S 4 8 71 2.16 17
2022-11-30 10:16 SSE 3 6 77 2.16 15
2022-11-30 09:16 SSW 3 6 78 2.16 13
2022-11-30 08:16 SE 1 3 82 2.16 10
2022-11-30 07:16 0 4 82 2.16 10
2022-11-30 06:16 SSW 2 5 79 2.16 10
2022-11-30 05:16 S 2 4 79 2.16 9
2022-11-30 04:16 SW 3 4 65 2.16 9
2022-11-30 03:16 SSW 2 7 65 2.16 8
2022-11-30 02:16 W 3 8 69 2.16 6
2022-11-30 01:16 SSW 4 7 72 2.16 5
2022-11-30 00:16 WNW 3 5 70 2.16 5
2022-11-29 23:16 NW 3 5 66 2.16 5
2022-11-29 22:16 NNW 2 4 65 2.16 6
2022-11-29 21:16 NW 3 3 70 2.16 6
2022-11-29 20:16 W 2 3 72 2.16 7
2022-11-29 19:16 WNW 2 4 69 2.16 9
2022-11-29 18:16 NW 1 5 62 2.16 9
2022-11-29 17:16 SW 3 8 62 2.16 9
2022-11-29 16:16 SW 5 11 51 2.16 12
2022-11-29 15:16 SSW 4 16 47 2.16 14
2022-11-29 14:16 SW 6 13 51 2.16 13
2022-11-29 13:16 S 6 11 61 2.16 13
2022-11-29 12:16 S 3 7 72 2.16 9
2022-11-29 11:16 SSE 4 8 71 2.16 9
2022-11-29 10:16 S 4 7 76 2.16 6
2022-11-29 09:16 0 2 76 2.16 6
2022-11-29 08:16 NW 1 3 77 2.16 -2
2022-11-29 07:16 N 1 3 78 2.16 -2
2022-11-29 06:16 NW 1 3 78 2.16 -2
2022-11-29 05:16 NW 2 3 79 2.16 -2
2022-11-29 04:16 NNW 1 2 78 2.16 -3
2022-11-29 03:16 W 1 4 82 2.16 -1
2022-11-29 02:16 WNW 1 3 80 2.16 0
2022-11-29 01:16 WSW 1 3 78 2.16 1
2022-11-29 00:16 NNW 1 2 79 2.16 2
2022-11-28 23:16 WNW 1 3 75 2.16 2
2022-11-28 22:16 NNW 2 4 76 2.16 1
2022-11-28 21:16 N 3 4 76 2.16 0
2022-11-28 20:16 NNW 3 3 78 2.16 -1
2022-11-28 19:16 N 1 3 78 2.16 1
2022-11-28 18:16 N 1 4 74 2.16 2
2022-11-28 17:16 NW 2 3 70 2.16 5
2022-11-28 16:16 SSW 3 9 63 2.16 10
2022-11-28 15:16 S 4 10 49 2.16 17
2022-11-28 14:16 S 6 10 52 2.16 18
2022-11-28 13:16 SSE 5 11 49 2.16 18